메인 페이지
METAR-TAF:

METAR-TAF

공항 :

RAAF Base Amberley

입스위치, 오스트레일리아

위도: 27-38-26S, 경도: 152-42-43E, 고도: 28m

현재 날씨관측

예보는 28분 전, 13:00시(UTC)에 발표되었습니다.
무풍
온도 16°C
습도 94%
기압 1023 hPa
시정 10km 이상

METAR: YAMB 141300Z AUTO 00000KT 9999 // NCD 16/15 Q1023 RF00.0/000.0

시각: 23:28 (13:28 UTC)

예보

예보는 2 시간 18분 전, 11:10시(UTC)에 발표되었습니다.
예보 대상 시간: 14일 12시부터 15일 12시까지 (UTC)
여러 방향의 바람 3kt
시정 10km 이상
고도 3000ft 상공 구름 조금
15일 0400시부터 (UTC)
동북동9kt
시정 10km 이상
고도 4000ft 상공 구름 조금
확률 30%
14일 18시부터 14일 21시까지 (UTC)
시정: 0600m
안개,

TAF: YAMB 141110Z 1412/1512 VRB03KT 9999 FEW030 FM150400 06009KT 9999 FEW040 PROB30 1418/1421 0600 FG

4,000개 이상의 공항 관측 자료 및 예보 (METAR 및 TAF 보고).

지도상에서 검색 가능한 기상관측소가 노란 점과 빨간 점으로 표시되어 있습니다.

기상관측소 명을 보려면 표시 위로 마우스를 이동하세요.

날씨 관측과 예보를 보려면 클릭하세요.

지도 변경 : 확대하려면 엑스 표시가 있는 녹색 버튼, 축소하려면 빼기 표시가 있는 녹색 버튼, 다음 페이지의 지도를 보려면 녹색 화살표를 클릭하세요.


METAR-TAF: